sensor_id;sensor_type;location;lat;lon;timestamp;temperature;humidity
5846;DHT22;2949;50.778;7.094;2023-06-26T00:02:13;21.50;99.90
5846;DHT22;2949;50.778;7.094;2023-06-26T00:04:39;21.50;99.90
5846;DHT22;2949;50.778;7.094;2023-06-26T00:07:05;21.40;99.90
5846;DHT22;2949;50.778;7.094;2023-06-26T00:09:30;21.30;99.90
5846;DHT22;2949;50.778;7.094;2023-06-26T00:11:56;21.30;99.90
5846;DHT22;2949;50.778;7.094;2023-06-26T00:14:21;21.20;99.90
5846;DHT22;2949;50.778;7.094;2023-06-26T00:16:47;21.20;99.90
5846;DHT22;2949;50.778;7.094;2023-06-26T00:19:15;21.20;99.90
5846;DHT22;2949;50.778;7.094;2023-06-26T00:21:40;21.20;99.90
5846;DHT22;2949;50.778;7.094;2023-06-26T00:24:06;21.20;99.90
5846;DHT22;2949;50.778;7.094;2023-06-26T00:26:31;21.10;99.90
5846;DHT22;2949;50.778;7.094;2023-06-26T00:28:57;21.00;99.90
5846;DHT22;2949;50.778;7.094;2023-06-26T00:31:22;21.00;99.90
5846;DHT22;2949;50.778;7.094;2023-06-26T00:33:48;20.90;99.90
5846;DHT22;2949;50.778;7.094;2023-06-26T00:36:13;20.80;99.90
5846;DHT22;2949;50.778;7.094;2023-06-26T00:38:39;20.80;99.90
5846;DHT22;2949;50.778;7.094;2023-06-26T00:41:05;20.80;99.90
5846;DHT22;2949;50.778;7.094;2023-06-26T00:43:39;20.80;99.90
5846;DHT22;2949;50.778;7.094;2023-06-26T00:46:09;20.70;99.90
5846;DHT22;2949;50.778;7.094;2023-06-26T00:48:35;20.70;99.90
5846;DHT22;2949;50.778;7.094;2023-06-26T00:51:01;20.70;99.90
5846;DHT22;2949;50.778;7.094;2023-06-26T00:53:27;20.70;99.90
5846;DHT22;2949;50.778;7.094;2023-06-26T00:55:53;20.70;99.90
5846;DHT22;2949;50.778;7.094;2023-06-26T00:58:21;20.70;99.90
5846;DHT22;2949;50.778;7.094;2023-06-26T01:00:51;20.70;99.90
5846;DHT22;2949;50.778;7.094;2023-06-26T01:03:17;20.70;99.90
5846;DHT22;2949;50.778;7.094;2023-06-26T01:05:42;20.60;99.90
5846;DHT22;2949;50.778;7.094;2023-06-26T01:08:11;20.60;99.90
5846;DHT22;2949;50.778;7.094;2023-06-26T01:10:37;20.60;99.90
5846;DHT22;2949;50.778;7.094;2023-06-26T01:13:03;20.60;99.90
5846;DHT22;2949;50.778;7.094;2023-06-26T01:15:29;20.60;99.90
5846;DHT22;2949;50.778;7.094;2023-06-26T01:17:55;20.60;99.90
5846;DHT22;2949;50.778;7.094;2023-06-26T01:20:25;20.50;99.90
5846;DHT22;2949;50.778;7.094;2023-06-26T01:28:32;20.50;99.90
5846;DHT22;2949;50.778;7.094;2023-06-26T01:30:59;20.50;99.90
5846;DHT22;2949;50.778;7.094;2023-06-26T01:33:25;20.40;99.90
5846;DHT22;2949;50.778;7.094;2023-06-26T01:35:51;20.40;99.90
5846;DHT22;2949;50.778;7.094;2023-06-26T01:38:18;20.30;99.90
5846;DHT22;2949;50.778;7.094;2023-06-26T01:40:45;20.30;99.90
5846;DHT22;2949;50.778;7.094;2023-06-26T01:46:27;20.30;99.90
5846;DHT22;2949;50.778;7.094;2023-06-26T01:50:05;20.20;99.90
5846;DHT22;2949;50.778;7.094;2023-06-26T01:55:16;20.20;99.90
5846;DHT22;2949;50.778;7.094;2023-06-26T01:57:44;20.20;99.90
5846;DHT22;2949;50.778;7.094;2023-06-26T02:00:11;20.20;99.90
5846;DHT22;2949;50.778;7.094;2023-06-26T02:02:40;20.10;99.90
5846;DHT22;2949;50.778;7.094;2023-06-26T02:05:06;20.00;99.90
5846;DHT22;2949;50.778;7.094;2023-06-26T02:07:32;20.00;99.90
5846;DHT22;2949;50.778;7.094;2023-06-26T02:09:57;20.00;99.90
5846;DHT22;2949;50.778;7.094;2023-06-26T02:12:23;20.10;99.90
5846;DHT22;2949;50.778;7.094;2023-06-26T02:14:48;20.00;99.90
5846;DHT22;2949;50.778;7.094;2023-06-26T02:17:15;20.00;99.90
5846;DHT22;2949;50.778;7.094;2023-06-26T02:19:40;20.00;99.90
5846;DHT22;2949;50.778;7.094;2023-06-26T02:22:16;19.90;99.90
5846;DHT22;2949;50.778;7.094;2023-06-26T02:24:42;19.90;99.90
5846;DHT22;2949;50.778;7.094;2023-06-26T02:27:08;19.90;99.90
5846;DHT22;2949;50.778;7.094;2023-06-26T02:29:34;19.90;99.90
5846;DHT22;2949;50.778;7.094;2023-06-26T02:31:59;19.90;99.90
5846;DHT22;2949;50.778;7.094;2023-06-26T02:34:25;19.80;99.90
5846;DHT22;2949;50.778;7.094;2023-06-26T02:36:50;19.70;99.90
5846;DHT22;2949;50.778;7.094;2023-06-26T02:39:16;19.70;99.90
5846;DHT22;2949;50.778;7.094;2023-06-26T02:41:41;19.70;99.90
5846;DHT22;2949;50.778;7.094;2023-06-26T02:44:08;19.60;99.90
5846;DHT22;2949;50.778;7.094;2023-06-26T02:46:34;19.70;99.90
5846;DHT22;2949;50.778;7.094;2023-06-26T02:48:59;19.70;99.90
5846;DHT22;2949;50.778;7.094;2023-06-26T02:51:25;19.60;99.90
5846;DHT22;2949;50.778;7.094;2023-06-26T02:53:50;19.50;99.90
5846;DHT22;2949;50.778;7.094;2023-06-26T02:56:16;19.40;99.90
5846;DHT22;2949;50.778;7.094;2023-06-26T02:58:41;19.30;99.90
5846;DHT22;2949;50.778;7.094;2023-06-26T03:01:07;19.20;99.90
5846;DHT22;2949;50.778;7.094;2023-06-26T03:03:33;19.20;99.90
5846;DHT22;2949;50.778;7.094;2023-06-26T03:06:08;19.10;99.90
5846;DHT22;2949;50.778;7.094;2023-06-26T03:08:37;19.00;99.90
5846;DHT22;2949;50.778;7.094;2023-06-26T03:11:04;19.00;99.90
5846;DHT22;2949;50.778;7.094;2023-06-26T03:13:30;19.00;99.90
5846;DHT22;2949;50.778;7.094;2023-06-26T03:15:55;18.90;99.90
5846;DHT22;2949;50.778;7.094;2023-06-26T03:18:21;18.90;99.90
5846;DHT22;2949;50.778;7.094;2023-06-26T03:20:46;18.90;99.90
5846;DHT22;2949;50.778;7.094;2023-06-26T03:23:13;18.90;99.90
5846;DHT22;2949;50.778;7.094;2023-06-26T03:25:39;18.90;99.90
5846;DHT22;2949;50.778;7.094;2023-06-26T03:28:04;18.90;99.90
5846;DHT22;2949;50.778;7.094;2023-06-26T03:30:30;18.90;99.90
5846;DHT22;2949;50.778;7.094;2023-06-26T03:32:55;18.90;99.90
5846;DHT22;2949;50.778;7.094;2023-06-26T03:35:21;19.00;99.90
5846;DHT22;2949;50.778;7.094;2023-06-26T03:37:48;19.00;99.90
5846;DHT22;2949;50.778;7.094;2023-06-26T03:40:14;19.00;99.90
5846;DHT22;2949;50.778;7.094;2023-06-26T03:42:39;19.10;99.90
5846;DHT22;2949;50.778;7.094;2023-06-26T03:45:05;19.10;99.90
5846;DHT22;2949;50.778;7.094;2023-06-26T03:47:31;19.20;99.90
5846;DHT22;2949;50.778;7.094;2023-06-26T03:49:56;19.30;99.90
5846;DHT22;2949;50.778;7.094;2023-06-26T03:52:22;19.30;99.90
5846;DHT22;2949;50.778;7.094;2023-06-26T03:54:47;19.40;99.90
5846;DHT22;2949;50.778;7.094;2023-06-26T03:57:14;19.50;99.90
5846;DHT22;2949;50.778;7.094;2023-06-26T03:59:39;19.60;99.90
5846;DHT22;2949;50.778;7.094;2023-06-26T04:02:05;19.70;99.90
5846;DHT22;2949;50.778;7.094;2023-06-26T04:04:31;19.80;99.90
5846;DHT22;2949;50.778;7.094;2023-06-26T04:06:56;19.90;99.90
5846;DHT22;2949;50.778;7.094;2023-06-26T04:09:24;20.10;99.90
5846;DHT22;2949;50.778;7.094;2023-06-26T04:11:50;20.40;99.90
5846;DHT22;2949;50.778;7.094;2023-06-26T04:14:15;20.60;99.90
5846;DHT22;2949;50.778;7.094;2023-06-26T04:16:41;20.80;99.90
5846;DHT22;2949;50.778;7.094;2023-06-26T04:19:06;21.00;99.90
5846;DHT22;2949;50.778;7.094;2023-06-26T04:21:32;21.20;99.90
5846;DHT22;2949;50.778;7.094;2023-06-26T04:23:57;21.40;99.90
5846;DHT22;2949;50.778;7.094;2023-06-26T04:26:23;21.60;99.90
5846;DHT22;2949;50.778;7.094;2023-06-26T04:28:48;21.80;99.90
5846;DHT22;2949;50.778;7.094;2023-06-26T04:31:14;22.00;99.90
5846;DHT22;2949;50.778;7.094;2023-06-26T04:33:39;22.20;99.90
5846;DHT22;2949;50.778;7.094;2023-06-26T04:36:05;22.30;99.90
5846;DHT22;2949;50.778;7.094;2023-06-26T04:38:32;22.40;99.90
5846;DHT22;2949;50.778;7.094;2023-06-26T04:40:59;22.40;99.90
5846;DHT22;2949;50.778;7.094;2023-06-26T04:43:24;22.50;99.90
5846;DHT22;2949;50.778;7.094;2023-06-26T04:45:50;22.60;99.90
5846;DHT22;2949;50.778;7.094;2023-06-26T04:48:16;22.70;99.90
5846;DHT22;2949;50.778;7.094;2023-06-26T04:50:41;22.80;99.90
5846;DHT22;2949;50.778;7.094;2023-06-26T04:53:07;22.90;99.90
5846;DHT22;2949;50.778;7.094;2023-06-26T04:55:33;22.90;99.90
5846;DHT22;2949;50.778;7.094;2023-06-26T04:57:58;23.00;99.90
5846;DHT22;2949;50.778;7.094;2023-06-26T05:00:24;23.10;99.90
5846;DHT22;2949;50.778;7.094;2023-06-26T05:02:50;23.30;99.90
5846;DHT22;2949;50.778;7.094;2023-06-26T05:05:24;23.30;99.90
5846;DHT22;2949;50.778;7.094;2023-06-26T05:07:52;23.40;99.90
5846;DHT22;2949;50.778;7.094;2023-06-26T05:10:17;23.50;99.90
5846;DHT22;2949;50.778;7.094;2023-06-26T05:12:43;23.50;99.90
5846;DHT22;2949;50.778;7.094;2023-06-26T05:15:09;23.40;99.90
5846;DHT22;2949;50.778;7.094;2023-06-26T05:17:34;23.50;99.90
5846;DHT22;2949;50.778;7.094;2023-06-26T05:20:00;23.50;99.90
5846;DHT22;2949;50.778;7.094;2023-06-26T05:22:26;23.50;99.90
5846;DHT22;2949;50.778;7.094;2023-06-26T05:24:54;23.50;99.90
5846;DHT22;2949;50.778;7.094;2023-06-26T05:27:20;23.50;99.90
5846;DHT22;2949;50.778;7.094;2023-06-26T05:29:48;23.60;99.90
5846;DHT22;2949;50.778;7.094;2023-06-26T05:32:16;23.80;99.90
5846;DHT22;2949;50.778;7.094;2023-06-26T05:34:48;24.80;99.90
5846;DHT22;2949;50.778;7.094;2023-06-26T05:37:20;26.00;99.90
5846;DHT22;2949;50.778;7.094;2023-06-26T05:40:12;26.90;99.90
5846;DHT22;2949;50.778;7.094;2023-06-26T05:42:38;26.40;99.90
5846;DHT22;2949;50.778;7.094;2023-06-26T05:45:04;25.90;99.90
5846;DHT22;2949;50.778;7.094;2023-06-26T05:47:29;25.30;99.90
5846;DHT22;2949;50.778;7.094;2023-06-26T05:49:55;25.40;99.90
5846;DHT22;2949;50.778;7.094;2023-06-26T05:52:21;26.30;99.90
5846;DHT22;2949;50.778;7.094;2023-06-26T05:54:46;26.10;99.90
5846;DHT22;2949;50.778;7.094;2023-06-26T05:57:13;26.20;99.90
5846;DHT22;2949;50.778;7.094;2023-06-26T05:59:39;26.80;99.90
5846;DHT22;2949;50.778;7.094;2023-06-26T06:02:05;26.10;99.90
5846;DHT22;2949;50.778;7.094;2023-06-26T06:04:31;25.80;99.90
5846;DHT22;2949;50.778;7.094;2023-06-26T06:06:56;25.70;99.90
5846;DHT22;2949;50.778;7.094;2023-06-26T06:09:22;25.40;99.90
5846;DHT22;2949;50.778;7.094;2023-06-26T06:11:47;24.90;99.90
5846;DHT22;2949;50.778;7.094;2023-06-26T06:14:13;25.90;99.90
5846;DHT22;2949;50.778;7.094;2023-06-26T06:16:38;27.70;99.90
5846;DHT22;2949;50.778;7.094;2023-06-26T06:19:04;30.00;98.60
5846;DHT22;2949;50.778;7.094;2023-06-26T06:21:32;31.70;94.70
5846;DHT22;2949;50.778;7.094;2023-06-26T06:23:57;33.10;91.20
5846;DHT22;2949;50.778;7.094;2023-06-26T06:26:23;34.20;84.20
5846;DHT22;2949;50.778;7.094;2023-06-26T06:28:49;34.50;81.20
5846;DHT22;2949;50.778;7.094;2023-06-26T06:31:14;33.30;79.90
5846;DHT22;2949;50.778;7.094;2023-06-26T06:33:39;30.90;84.70
5846;DHT22;2949;50.778;7.094;2023-06-26T06:36:05;28.70;90.80
5846;DHT22;2949;50.778;7.094;2023-06-26T06:38:30;27.10;93.80
5846;DHT22;2949;50.778;7.094;2023-06-26T06:40:57;26.10;96.30
5846;DHT22;2949;50.778;7.094;2023-06-26T06:43:22;26.00;98.40
5846;DHT22;2949;50.778;7.094;2023-06-26T06:45:48;25.80;98.50
5846;DHT22;2949;50.778;7.094;2023-06-26T06:48:13;25.30;99.90
5846;DHT22;2949;50.778;7.094;2023-06-26T06:50:39;25.10;99.90
5846;DHT22;2949;50.778;7.094;2023-06-26T06:53:04;27.30;99.90
5846;DHT22;2949;50.778;7.094;2023-06-26T06:55:30;29.70;96.20
5846;DHT22;2949;50.778;7.094;2023-06-26T06:57:55;31.50;91.80
5846;DHT22;2949;50.778;7.094;2023-06-26T07:00:21;30.40;91.10
5846;DHT22;2949;50.778;7.094;2023-06-26T07:02:46;28.50;93.60
5846;DHT22;2949;50.778;7.094;2023-06-26T07:05:12;26.90;96.30
5846;DHT22;2949;50.778;7.094;2023-06-26T07:07:38;26.50;98.10
5846;DHT22;2949;50.778;7.094;2023-06-26T07:10:07;26.90;98.60
5846;DHT22;2949;50.778;7.094;2023-06-26T07:12:33;28.00;97.20
5846;DHT22;2949;50.778;7.094;2023-06-26T07:15:03;27.80;96.70
5846;DHT22;2949;50.778;7.094;2023-06-26T07:17:33;27.20;97.40
5846;DHT22;2949;50.778;7.094;2023-06-26T07:19:59;27.00;98.00
5846;DHT22;2949;50.778;7.094;2023-06-26T07:22:25;27.80;97.40
5846;DHT22;2949;50.778;7.094;2023-06-26T07:24:50;29.20;95.30
5846;DHT22;2949;50.778;7.094;2023-06-26T07:27:16;30.40;93.00
5846;DHT22;2949;50.778;7.094;2023-06-26T07:29:43;31.30;91.80
5846;DHT22;2949;50.778;7.094;2023-06-26T07:32:08;32.50;88.80
5846;DHT22;2949;50.778;7.094;2023-06-26T07:34:34;33.30;85.90
5846;DHT22;2949;50.778;7.094;2023-06-26T07:37:00;34.10;82.70
5846;DHT22;2949;50.778;7.094;2023-06-26T07:39:25;34.70;78.90
5846;DHT22;2949;50.778;7.094;2023-06-26T07:41:51;34.30;78.30
5846;DHT22;2949;50.778;7.094;2023-06-26T07:44:16;34.40;77.90
5846;DHT22;2949;50.778;7.094;2023-06-26T07:46:42;34.00;77.50
5846;DHT22;2949;50.778;7.094;2023-06-26T07:49:07;33.80;78.30
5846;DHT22;2949;50.778;7.094;2023-06-26T07:51:33;33.80;78.00
5846;DHT22;2949;50.778;7.094;2023-06-26T07:53:58;34.50;76.20
5846;DHT22;2949;50.778;7.094;2023-06-26T07:56:24;35.30;74.50
5846;DHT22;2949;50.778;7.094;2023-06-26T07:58:49;34.80;74.60
5846;DHT22;2949;50.778;7.094;2023-06-26T08:01:15;33.80;75.50
5846;DHT22;2949;50.778;7.094;2023-06-26T08:03:41;33.80;74.80
5846;DHT22;2949;50.778;7.094;2023-06-26T08:06:06;33.90;74.30
5846;DHT22;2949;50.778;7.094;2023-06-26T08:08:32;33.50;75.60
5846;DHT22;2949;50.778;7.094;2023-06-26T08:10:57;32.30;77.90
5846;DHT22;2949;50.778;7.094;2023-06-26T08:13:23;31.00;80.90
5846;DHT22;2949;50.778;7.094;2023-06-26T08:15:48;30.80;83.00
5846;DHT22;2949;50.778;7.094;2023-06-26T08:18:14;30.70;82.10
5846;DHT22;2949;50.778;7.094;2023-06-26T08:20:39;30.50;82.80
5846;DHT22;2949;50.778;7.094;2023-06-26T08:23:05;30.20;85.60
5846;DHT22;2949;50.778;7.094;2023-06-26T08:25:30;30.60;85.50
5846;DHT22;2949;50.778;7.094;2023-06-26T08:27:56;30.60;84.30
5846;DHT22;2949;50.778;7.094;2023-06-26T08:30:22;31.00;83.40
5846;DHT22;2949;50.778;7.094;2023-06-26T08:32:48;30.20;83.40
5846;DHT22;2949;50.778;7.094;2023-06-26T08:35:14;29.70;86.20
5846;DHT22;2949;50.778;7.094;2023-06-26T08:37:39;30.70;85.20
5846;DHT22;2949;50.778;7.094;2023-06-26T08:40:06;32.00;81.50
5846;DHT22;2949;50.778;7.094;2023-06-26T08:42:32;33.00;78.80
5846;DHT22;2949;50.778;7.094;2023-06-26T08:44:57;34.00;77.40
5846;DHT22;2949;50.778;7.094;2023-06-26T08:47:23;34.20;74.10
5846;DHT22;2949;50.778;7.094;2023-06-26T08:52:58;34.00;71.70
5846;DHT22;2949;50.778;7.094;2023-06-26T08:55:23;33.40;72.80
5846;DHT22;2949;50.778;7.094;2023-06-26T08:57:51;33.50;74.00
5846;DHT22;2949;50.778;7.094;2023-06-26T09:00:17;32.90;73.70
5846;DHT22;2949;50.778;7.094;2023-06-26T09:02:43;32.70;74.40
5846;DHT22;2949;50.778;7.094;2023-06-26T09:05:09;31.60;75.50
5846;DHT22;2949;50.778;7.094;2023-06-26T09:07:35;31.90;75.70
5846;DHT22;2949;50.778;7.094;2023-06-26T09:10:00;32.10;75.50
5846;DHT22;2949;50.778;7.094;2023-06-26T09:12:29;32.20;74.60
5846;DHT22;2949;50.778;7.094;2023-06-26T09:14:56;31.30;75.30
5846;DHT22;2949;50.778;7.094;2023-06-26T09:17:25;31.10;77.00
5846;DHT22;2949;50.778;7.094;2023-06-26T09:19:54;31.90;75.60
5846;DHT22;2949;50.778;7.094;2023-06-26T09:22:19;31.60;73.70
5846;DHT22;2949;50.778;7.094;2023-06-26T09:24:45;32.00;75.30
5846;DHT22;2949;50.778;7.094;2023-06-26T09:27:11;32.40;74.20
5846;DHT22;2949;50.778;7.094;2023-06-26T09:29:37;31.30;74.50
5846;DHT22;2949;50.778;7.094;2023-06-26T09:32:03;30.00;77.20
5846;DHT22;2949;50.778;7.094;2023-06-26T09:34:32;29.00;80.40
5846;DHT22;2949;50.778;7.094;2023-06-26T09:36:59;30.00;79.00
5846;DHT22;2949;50.778;7.094;2023-06-26T09:39:29;29.80;79.20
5846;DHT22;2949;50.778;7.094;2023-06-26T09:41:55;28.90;81.60
5846;DHT22;2949;50.778;7.094;2023-06-26T09:44:22;28.00;84.60
5846;DHT22;2949;50.778;7.094;2023-06-26T09:46:48;28.50;82.50
5846;DHT22;2949;50.778;7.094;2023-06-26T09:49:13;29.30;80.70
5846;DHT22;2949;50.778;7.094;2023-06-26T09:51:41;30.40;76.10
5846;DHT22;2949;50.778;7.094;2023-06-26T09:54:07;30.70;74.50
5846;DHT22;2949;50.778;7.094;2023-06-26T09:56:34;31.30;74.40
5846;DHT22;2949;50.778;7.094;2023-06-26T09:59:02;32.40;73.30
5846;DHT22;2949;50.778;7.094;2023-06-26T10:01:28;33.20;70.70
5846;DHT22;2949;50.778;7.094;2023-06-26T10:03:54;32.90;69.60
5846;DHT22;2949;50.778;7.094;2023-06-26T10:06:27;33.10;68.50
5846;DHT22;2949;50.778;7.094;2023-06-26T10:08:53;33.00;67.80
5846;DHT22;2949;50.778;7.094;2023-06-26T10:11:21;32.60;68.00
5846;DHT22;2949;50.778;7.094;2023-06-26T10:13:50;31.90;69.10
5846;DHT22;2949;50.778;7.094;2023-06-26T10:16:26;31.80;70.00
5846;DHT22;2949;50.778;7.094;2023-06-26T10:18:57;31.50;69.00
5846;DHT22;2949;50.778;7.094;2023-06-26T10:21:26;31.50;69.80
5846;DHT22;2949;50.778;7.094;2023-06-26T10:23:53;31.90;68.70
5846;DHT22;2949;50.778;7.094;2023-06-26T10:26:21;32.20;68.10
5846;DHT22;2949;50.778;7.094;2023-06-26T10:28:50;32.50;65.80
5846;DHT22;2949;50.778;7.094;2023-06-26T10:31:21;32.40;66.70
5846;DHT22;2949;50.778;7.094;2023-06-26T10:33:48;31.80;68.20
5846;DHT22;2949;50.778;7.094;2023-06-26T10:36:20;31.50;67.20
5846;DHT22;2949;50.778;7.094;2023-06-26T10:38:57;31.90;66.50
5846;DHT22;2949;50.778;7.094;2023-06-26T10:41:23;31.60;65.60
5846;DHT22;2949;50.778;7.094;2023-06-26T10:43:50;31.60;65.50
5846;DHT22;2949;50.778;7.094;2023-06-26T10:46:18;31.70;65.00
5846;DHT22;2949;50.778;7.094;2023-06-26T10:49:00;31.10;63.70
5846;DHT22;2949;50.778;7.094;2023-06-26T10:51:28;30.80;66.30
5846;DHT22;2949;50.778;7.094;2023-06-26T10:53:55;31.40;67.40
5846;DHT22;2949;50.778;7.094;2023-06-26T10:56:21;31.20;66.30
5846;DHT22;2949;50.778;7.094;2023-06-26T10:58:47;30.30;66.40
5846;DHT22;2949;50.778;7.094;2023-06-26T11:01:23;29.70;68.20
5846;DHT22;2949;50.778;7.094;2023-06-26T11:04:03;29.30;68.60
5846;DHT22;2949;50.778;7.094;2023-06-26T11:06:30;29.00;68.30
5846;DHT22;2949;50.778;7.094;2023-06-26T11:14:19;28.60;68.50
5846;DHT22;2949;50.778;7.094;2023-06-26T11:16:45;28.00;66.70
5846;DHT22;2949;50.778;7.094;2023-06-26T11:19:12;27.70;66.70
5846;DHT22;2949;50.778;7.094;2023-06-26T11:21:38;27.70;68.30
5846;DHT22;2949;50.778;7.094;2023-06-26T11:24:08;27.90;67.50
5846;DHT22;2949;50.778;7.094;2023-06-26T11:26:44;27.90;68.40
5846;DHT22;2949;50.778;7.094;2023-06-26T11:29:11;27.80;69.40
5846;DHT22;2949;50.778;7.094;2023-06-26T11:31:38;27.80;69.10
5846;DHT22;2949;50.778;7.094;2023-06-26T11:34:05;27.90;68.30
5846;DHT22;2949;50.778;7.094;2023-06-26T11:36:32;28.00;67.40
5846;DHT22;2949;50.778;7.094;2023-06-26T11:39:00;28.00;68.40
5846;DHT22;2949;50.778;7.094;2023-06-26T11:41:28;28.00;69.20
5846;DHT22;2949;50.778;7.094;2023-06-26T11:43:54;27.90;68.00
5846;DHT22;2949;50.778;7.094;2023-06-26T11:46:21;27.90;63.70
5846;DHT22;2949;50.778;7.094;2023-06-26T11:48:47;27.90;65.60
5846;DHT22;2949;50.778;7.094;2023-06-26T11:51:14;28.10;63.20
5846;DHT22;2949;50.778;7.094;2023-06-26T11:53:44;28.20;63.50
5846;DHT22;2949;50.778;7.094;2023-06-26T11:56:17;28.30;63.30
5846;DHT22;2949;50.778;7.094;2023-06-26T11:59:03;28.20;66.00
5846;DHT22;2949;50.778;7.094;2023-06-26T12:01:42;28.20;66.10
5846;DHT22;2949;50.778;7.094;2023-06-26T12:04:12;27.80;67.50
5846;DHT22;2949;50.778;7.094;2023-06-26T12:06:45;27.80;68.60
5846;DHT22;2949;50.778;7.094;2023-06-26T12:09:12;27.40;67.10
5846;DHT22;2949;50.778;7.094;2023-06-26T12:11:41;27.40;65.30
5846;DHT22;2949;50.778;7.094;2023-06-26T12:14:08;27.40;65.20
5846;DHT22;2949;50.778;7.094;2023-06-26T12:16:35;27.00;65.10
5846;DHT22;2949;50.778;7.094;2023-06-26T12:19:02;26.60;65.00
5846;DHT22;2949;50.778;7.094;2023-06-26T12:21:45;26.60;64.40
5846;DHT22;2949;50.778;7.094;2023-06-26T12:24:19;27.00;65.40
5846;DHT22;2949;50.778;7.094;2023-06-26T12:26:46;27.20;65.30
5846;DHT22;2949;50.778;7.094;2023-06-26T12:29:16;27.30;65.20
5846;DHT22;2949;50.778;7.094;2023-06-26T12:31:44;27.50;65.00
5846;DHT22;2949;50.778;7.094;2023-06-26T12:34:14;27.70;64.40
5846;DHT22;2949;50.778;7.094;2023-06-26T12:36:44;27.70;64.40
5846;DHT22;2949;50.778;7.094;2023-06-26T12:39:11;27.40;66.30
5846;DHT22;2949;50.778;7.094;2023-06-26T12:44:24;27.40;64.70
5846;DHT22;2949;50.778;7.094;2023-06-26T12:46:54;27.40;63.10
5846;DHT22;2949;50.778;7.094;2023-06-26T12:49:20;27.00;65.70
5846;DHT22;2949;50.778;7.094;2023-06-26T12:51:47;27.00;65.30
5846;DHT22;2949;50.778;7.094;2023-06-26T12:54:12;27.20;63.40
5846;DHT22;2949;50.778;7.094;2023-06-26T12:56:38;27.50;61.90
5846;DHT22;2949;50.778;7.094;2023-06-26T12:59:03;27.50;62.80
5846;DHT22;2949;50.778;7.094;2023-06-26T13:01:29;27.40;63.40
5846;DHT22;2949;50.778;7.094;2023-06-26T13:03:54;27.00;64.20
5846;DHT22;2949;50.778;7.094;2023-06-26T13:06:20;26.80;66.10
5846;DHT22;2949;50.778;7.094;2023-06-26T13:08:46;27.10;66.70
5846;DHT22;2949;50.778;7.094;2023-06-26T13:11:11;27.40;66.40
5846;DHT22;2949;50.778;7.094;2023-06-26T13:13:37;27.30;65.20
5846;DHT22;2949;50.778;7.094;2023-06-26T13:16:02;27.10;64.40
5846;DHT22;2949;50.778;7.094;2023-06-26T13:18:28;27.20;65.70
5846;DHT22;2949;50.778;7.094;2023-06-26T13:20:54;27.40;66.40
5846;DHT22;2949;50.778;7.094;2023-06-26T13:23:19;27.50;66.10
5846;DHT22;2949;50.778;7.094;2023-06-26T13:25:45;27.80;65.20
5846;DHT22;2949;50.778;7.094;2023-06-26T13:28:11;27.90;64.80
5846;DHT22;2949;50.778;7.094;2023-06-26T13:30:36;28.00;62.30
5846;DHT22;2949;50.778;7.094;2023-06-26T13:33:02;28.00;61.80
5846;DHT22;2949;50.778;7.094;2023-06-26T13:35:28;28.00;61.40
5846;DHT22;2949;50.778;7.094;2023-06-26T13:37:53;27.90;62.20
5846;DHT22;2949;50.778;7.094;2023-06-26T13:40:19;27.90;63.70
5846;DHT22;2949;50.778;7.094;2023-06-26T13:42:44;28.00;64.40
5846;DHT22;2949;50.778;7.094;2023-06-26T13:45:10;28.20;65.00
5846;DHT22;2949;50.778;7.094;2023-06-26T13:47:37;28.10;62.30
5846;DHT22;2949;50.778;7.094;2023-06-26T13:50:07;27.40;62.00
5846;DHT22;2949;50.778;7.094;2023-06-26T13:52:33;27.10;62.30
5846;DHT22;2949;50.778;7.094;2023-06-26T13:54:58;27.10;62.80
5846;DHT22;2949;50.778;7.094;2023-06-26T13:57:24;27.30;62.80
5846;DHT22;2949;50.778;7.094;2023-06-26T13:59:49;27.30;62.50
5846;DHT22;2949;50.778;7.094;2023-06-26T14:02:15;27.00;61.80
5846;DHT22;2949;50.778;7.094;2023-06-26T14:04:41;26.80;62.20
5846;DHT22;2949;50.778;7.094;2023-06-26T14:07:06;26.60;62.20
5846;DHT22;2949;50.778;7.094;2023-06-26T14:09:32;26.60;63.10
5846;DHT22;2949;50.778;7.094;2023-06-26T14:11:58;26.70;63.60
5846;DHT22;2949;50.778;7.094;2023-06-26T14:14:23;26.40;63.80
5846;DHT22;2949;50.778;7.094;2023-06-26T14:16:49;26.30;65.00
5846;DHT22;2949;50.778;7.094;2023-06-26T14:19:14;26.50;64.90
5846;DHT22;2949;50.778;7.094;2023-06-26T14:21:42;26.60;64.80
5846;DHT22;2949;50.778;7.094;2023-06-26T14:24:08;26.80;63.80
5846;DHT22;2949;50.778;7.094;2023-06-26T14:26:34;27.20;64.10
5846;DHT22;2949;50.778;7.094;2023-06-26T14:29:00;27.40;63.10
5846;DHT22;2949;50.778;7.094;2023-06-26T14:31:26;27.10;62.70
5846;DHT22;2949;50.778;7.094;2023-06-26T14:33:52;27.00;63.10
5846;DHT22;2949;50.778;7.094;2023-06-26T14:36:17;26.90;63.20
5846;DHT22;2949;50.778;7.094;2023-06-26T14:38:43;27.10;62.70
5846;DHT22;2949;50.778;7.094;2023-06-26T14:41:08;27.20;61.90
5846;DHT22;2949;50.778;7.094;2023-06-26T14:43:34;26.90;61.80
5846;DHT22;2949;50.778;7.094;2023-06-26T14:45:59;26.80;62.10
5846;DHT22;2949;50.778;7.094;2023-06-26T14:48:25;26.80;61.40
5846;DHT22;2949;50.778;7.094;2023-06-26T14:50:50;26.70;61.30
5846;DHT22;2949;50.778;7.094;2023-06-26T14:53:17;26.70;59.30
5846;DHT22;2949;50.778;7.094;2023-06-26T14:55:42;26.80;59.60
5846;DHT22;2949;50.778;7.094;2023-06-26T14:58:08;27.00;59.60
5846;DHT22;2949;50.778;7.094;2023-06-26T15:00:33;27.00;59.70
5846;DHT22;2949;50.778;7.094;2023-06-26T15:02:59;26.90;59.60
5846;DHT22;2949;50.778;7.094;2023-06-26T15:05:24;26.70;59.80
5846;DHT22;2949;50.778;7.094;2023-06-26T15:07:50;26.60;59.50
5846;DHT22;2949;50.778;7.094;2023-06-26T15:10:16;26.60;60.50
5846;DHT22;2949;50.778;7.094;2023-06-26T15:12:42;26.50;60.80
5846;DHT22;2949;50.778;7.094;2023-06-26T15:15:09;26.40;61.50
5846;DHT22;2949;50.778;7.094;2023-06-26T15:17:34;26.20;62.00
5846;DHT22;2949;50.778;7.094;2023-06-26T15:20:00;26.10;62.00
5846;DHT22;2949;50.778;7.094;2023-06-26T15:22:28;26.00;62.50
5846;DHT22;2949;50.778;7.094;2023-06-26T15:24:54;26.00;62.80
5846;DHT22;2949;50.778;7.094;2023-06-26T15:27:19;26.30;63.40
5846;DHT22;2949;50.778;7.094;2023-06-26T15:29:45;26.40;62.00
5846;DHT22;2949;50.778;7.094;2023-06-26T15:32:11;26.30;62.50
5846;DHT22;2949;50.778;7.094;2023-06-26T15:34:36;26.30;63.10
5846;DHT22;2949;50.778;7.094;2023-06-26T15:37:02;26.20;62.80
5846;DHT22;2949;50.778;7.094;2023-06-26T15:39:27;25.90;62.50
5846;DHT22;2949;50.778;7.094;2023-06-26T15:41:53;25.80;63.90
5846;DHT22;2949;50.778;7.094;2023-06-26T15:44:18;26.00;62.30
5846;DHT22;2949;50.778;7.094;2023-06-26T15:46:44;26.20;62.20
5846;DHT22;2949;50.778;7.094;2023-06-26T15:49:09;26.20;61.20
5846;DHT22;2949;50.778;7.094;2023-06-26T15:51:35;26.20;62.10
5846;DHT22;2949;50.778;7.094;2023-06-26T15:54:03;26.20;62.40
5846;DHT22;2949;50.778;7.094;2023-06-26T15:56:29;26.20;61.20
5846;DHT22;2949;50.778;7.094;2023-06-26T15:58:54;26.10;60.30
5846;DHT22;2949;50.778;7.094;2023-06-26T16:01:20;25.80;61.10
5846;DHT22;2949;50.778;7.094;2023-06-26T16:03:46;25.70;62.10
5846;DHT22;2949;50.778;7.094;2023-06-26T16:06:12;25.60;61.00
5846;DHT22;2949;50.778;7.094;2023-06-26T16:08:38;25.80;61.40
5846;DHT22;2949;50.778;7.094;2023-06-26T16:11:06;25.90;61.50
5846;DHT22;2949;50.778;7.094;2023-06-26T16:13:32;25.80;60.90
5846;DHT22;2949;50.778;7.094;2023-06-26T16:15:57;25.60;61.20
5846;DHT22;2949;50.778;7.094;2023-06-26T16:18:24;25.50;61.40
5846;DHT22;2949;50.778;7.094;2023-06-26T16:20:50;25.50;61.10
5846;DHT22;2949;50.778;7.094;2023-06-26T16:23:17;25.30;60.20